SWA811 KBWI-MDPC
Flight info
| Callsign | SWA811 |
|---|---|
| Flight time | N/A |
| Altitude | 36000 |
| Route | CONLE5 SCOOB DCT EARZZ DCT SKARP Y313 IDOLS DCT CANIT/N0455F370 DCT NUCAR Y355 OMALY DCT HAGIT DCT POKEG POKEG1W |
| Aircraft | B738/M-SDE2E3FGHIRWXY/LB1 |
Departure
| Time | 2026-05-04 09:01 |
|---|---|
| Airport | Baltimore/Washington International Thurgood Marshall Airport (KBWI) |
Arrival
| Time | N/A |
|---|---|
| Airport | Punta Cana International Airport (MDPC) |
| Time | Latitude | Longitude | Altitude | Speed | Heading |
|---|---|---|---|---|---|
| 2026-05-04 08:21 | 39.17667 | -76.66666 | 155 ft | 0 kts | 11° |
| 2026-05-04 08:28 | 39.17603 | -76.66905 | 155 ft | 0 kts | 352° |
| 2026-05-04 08:52 | 39.17602 | -76.66904 | 155 ft | 2 kts | 352° |
| 2026-05-04 08:52 | 39.17577 | -76.66900 | 155 ft | 4 kts | 355° |
| 2026-05-04 08:52 | 39.17551 | -76.66901 | 155 ft | 4 kts | 22° |
| 2026-05-04 08:52 | 39.17537 | -76.66917 | 155 ft | 3 kts | 95° |
| 2026-05-04 08:53 | 39.17537 | -76.66920 | 155 ft | 3 kts | 96° |
| 2026-05-04 08:57 | 39.17574 | -76.66499 | 153 ft | 12 kts | 75° |
| 2026-05-04 09:01 | 39.17689 | -76.72628 | 1818 ft | 202 kts | 269° |
| 2026-05-04 09:01 | 39.17360 | -76.74400 | 1973 ft | 214 kts | 233° |
| 2026-05-04 09:01 | 39.16156 | -76.75548 | 2293 ft | 224 kts | 198° |
| 2026-05-04 09:01 | 39.14584 | -76.75605 | 2692 ft | 238 kts | 166° |
| 2026-05-04 09:02 | 39.13097 | -76.74510 | 3033 ft | 256 kts | 143° |
| 2026-05-04 09:02 | 39.11694 | -76.73063 | 3682 ft | 260 kts | 144° |
| 2026-05-04 09:02 | 39.10260 | -76.71616 | 4410 ft | 262 kts | 145° |
| 2026-05-04 09:02 | 39.09297 | -76.70662 | 4846 ft | 265 kts | 146° |
| 2026-05-04 09:03 | 39.07315 | -76.68721 | 5719 ft | 271 kts | 146° |
| 2026-05-04 09:03 | 39.06314 | -76.67748 | 6143 ft | 274 kts | 147° |
| 2026-05-04 09:03 | 39.04781 | -76.66260 | 6785 ft | 278 kts | 147° |
| 2026-05-04 09:03 | 39.02853 | -76.64034 | 7595 ft | 287 kts | 135° |
| 2026-05-04 09:04 | 39.01555 | -76.62040 | 8177 ft | 293 kts | 133° |
| 2026-05-04 09:04 | 39.00685 | -76.60661 | 8629 ft | 294 kts | 133° |
| 2026-05-04 09:04 | 38.99399 | -76.58641 | 9278 ft | 297 kts | 134° |
| 2026-05-04 09:04 | 38.98064 | -76.56592 | 9911 ft | 301 kts | 134° |
| 2026-05-04 09:05 | 38.96691 | -76.54519 | 10342 ft | 311 kts | 134° |
| 2026-05-04 09:05 | 38.95232 | -76.52336 | 10480 ft | 331 kts | 134° |
| 2026-05-04 09:05 | 38.93526 | -76.50269 | 10596 ft | 344 kts | 153° |
| 2026-05-04 09:05 | 38.91284 | -76.49284 | 10920 ft | 343 kts | 179° |
| 2026-05-04 09:06 | 38.88931 | -76.49471 | 11429 ft | 338 kts | 197° |
| 2026-05-04 09:07 | 38.72966 | -76.56519 | 14181 ft | 357 kts | 207° |
| 2026-05-04 09:08 | 38.70643 | -76.57661 | 14826 ft | 357 kts | 207° |
| 2026-05-04 09:08 | 38.68315 | -76.58794 | 15538 ft | 358 kts | 206° |
| 2026-05-04 09:08 | 38.65967 | -76.59894 | 16134 ft | 361 kts | 206° |
| 2026-05-04 09:08 | 38.63592 | -76.60987 | 16734 ft | 364 kts | 206° |
| 2026-05-04 09:09 | 38.61194 | -76.62086 | 17327 ft | 368 kts | 206° |
| 2026-05-04 09:09 | 38.58807 | -76.63183 | 17904 ft | 371 kts | 205° |
| 2026-05-04 09:09 | 38.56375 | -76.64300 | 18507 ft | 372 kts | 206° |
| 2026-05-04 09:09 | 38.53933 | -76.65424 | 19122 ft | 371 kts | 207° |
| 2026-05-04 09:10 | 38.51506 | -76.66544 | 19658 ft | 373 kts | 207° |
| 2026-05-04 09:10 | 38.49051 | -76.67677 | 20161 ft | 375 kts | 207° |
| 2026-05-04 09:10 | 38.46578 | -76.68816 | 20687 ft | 377 kts | 207° |
| 2026-05-04 09:10 | 38.44105 | -76.69954 | 21210 ft | 379 kts | 207° |
| 2026-05-04 09:11 | 38.41583 | -76.71016 | 21722 ft | 387 kts | 200° |
| 2026-05-04 09:11 | 38.38858 | -76.71196 | 22168 ft | 408 kts | 182° |
| 2026-05-04 09:11 | 38.36031 | -76.70745 | 22660 ft | 411 kts | 181° |
| 2026-05-04 09:11 | 38.33177 | -76.70241 | 23095 ft | 415 kts | 181° |
| 2026-05-04 09:12 | 38.30305 | -76.69734 | 23526 ft | 418 kts | 181° |
| 2026-05-04 09:12 | 38.27412 | -76.69239 | 23930 ft | 420 kts | 182° |
| 2026-05-04 09:14 | 38.06897 | -76.66071 | 26589 ft | 425 kts | 186° |
| 2026-05-04 09:14 | 38.03942 | -76.65872 | 26937 ft | 425 kts | 187° |
| 2026-05-04 09:14 | 38.00975 | -76.65715 | 27276 ft | 427 kts | 187° |
| 2026-05-04 09:14 | 37.98004 | -76.65564 | 27626 ft | 428 kts | 187° |
| 2026-05-04 09:15 | 37.95019 | -76.65395 | 27975 ft | 429 kts | 186° |
| 2026-05-04 09:15 | 37.92029 | -76.65210 | 28301 ft | 431 kts | 186° |
| 2026-05-04 09:15 | 37.91057 | -76.65148 | 28410 ft | 432 kts | 186° |
| 2026-05-04 09:15 | 37.88907 | -76.65008 | 28617 ft | 433 kts | 186° |
| 2026-05-04 09:17 | 37.64835 | -76.63407 | 31442 ft | 427 kts | 187° |
| 2026-05-04 09:18 | 37.61869 | -76.63204 | 31753 ft | 426 kts | 186° |
| 2026-05-04 09:18 | 37.58912 | -76.63027 | 32052 ft | 423 kts | 189° |
| 2026-05-04 09:18 | 37.56014 | -76.63182 | 32386 ft | 414 kts | 194° |
| 2026-05-04 09:18 | 37.53165 | -76.63562 | 32741 ft | 409 kts | 196° |
| 2026-05-04 09:19 | 37.50384 | -76.64015 | 33077 ft | 407 kts | 197° |
| 2026-05-04 09:19 | 37.47578 | -76.64484 | 33381 ft | 406 kts | 196° |
| 2026-05-04 09:19 | 37.44776 | -76.64923 | 33686 ft | 405 kts | 195° |
| 2026-05-04 09:19 | 37.41975 | -76.65339 | 33954 ft | 404 kts | 195° |
| 2026-05-04 09:20 | 37.39190 | -76.65741 | 34207 ft | 403 kts | 195° |
| 2026-05-04 09:20 | 37.36398 | -76.66137 | 34356 ft | 405 kts | 195° |
| 2026-05-04 09:20 | 37.33588 | -76.66530 | 34465 ft | 407 kts | 195° |
| 2026-05-04 09:20 | 37.30772 | -76.66919 | 34625 ft | 408 kts | 194° |
| 2026-05-04 09:21 | 37.27947 | -76.67305 | 34796 ft | 408 kts | 194° |
| 2026-05-04 09:21 | 37.25119 | -76.67690 | 34932 ft | 410 kts | 194° |
| 2026-05-04 09:21 | 37.22279 | -76.68077 | 35066 ft | 411 kts | 195° |
| 2026-05-04 09:21 | 37.19437 | -76.68468 | 35166 ft | 412 kts | 195° |
| 2026-05-04 09:22 | 37.16582 | -76.68858 | 35291 ft | 413 kts | 194° |
| 2026-05-04 09:22 | 37.13715 | -76.69244 | 35437 ft | 414 kts | 194° |
| 2026-05-04 09:22 | 37.10847 | -76.69629 | 35596 ft | 415 kts | 194° |
| 2026-05-04 09:22 | 37.07978 | -76.70015 | 35734 ft | 415 kts | 194° |
| 2026-05-04 09:23 | 37.05135 | -76.70399 | 35854 ft | 416 kts | 194° |
| 2026-05-04 09:23 | 37.02251 | -76.70789 | 35998 ft | 417 kts | 194° |
| 2026-05-04 09:23 | 36.96455 | -76.71574 | 36064 ft | 421 kts | 194° |
| 2026-05-04 09:25 | 36.73453 | -76.74665 | 36129 ft | 412 kts | 194° |
| 2026-05-04 09:26 | 36.67749 | -76.75434 | 36121 ft | 411 kts | 194° |
| 2026-05-04 09:26 | 36.62086 | -76.76191 | 36132 ft | 412 kts | 194° |
| 2026-05-04 09:27 | 36.56384 | -76.76953 | 36130 ft | 413 kts | 194° |
| 2026-05-04 09:27 | 36.50645 | -76.77720 | 36127 ft | 415 kts | 194° |
| 2026-05-04 09:28 | 36.44893 | -76.78488 | 36125 ft | 415 kts | 194° |
| 2026-05-04 09:28 | 36.39138 | -76.79253 | 36129 ft | 417 kts | 194° |
| 2026-05-04 09:29 | 36.33393 | -76.80016 | 36125 ft | 418 kts | 194° |
| 2026-05-04 09:29 | 36.27597 | -76.80785 | 36135 ft | 419 kts | 194° |
| 2026-05-04 09:30 | 36.21799 | -76.81553 | 36134 ft | 419 kts | 194° |
| 2026-05-04 09:30 | 36.15996 | -76.82320 | 36138 ft | 419 kts | 194° |
| 2026-05-04 09:31 | 36.10194 | -76.83086 | 36142 ft | 419 kts | 194° |
| 2026-05-04 09:31 | 36.04436 | -76.83846 | 36143 ft | 418 kts | 194° |
| 2026-05-04 09:32 | 35.98657 | -76.84607 | 36134 ft | 417 kts | 193° |
| 2026-05-04 09:34 | 35.79325 | -76.90216 | 36140 ft | 406 kts | 205° |
| 2026-05-04 09:34 | 35.76640 | -76.91301 | 36123 ft | 406 kts | 205° |
| 2026-05-04 09:34 | 35.71245 | -76.93451 | 36140 ft | 408 kts | 204° |
| 2026-05-04 09:35 | 35.65859 | -76.95569 | 36149 ft | 410 kts | 204° |
| 2026-05-04 09:35 | 35.60417 | -76.97716 | 36150 ft | 411 kts | 204° |
| 2026-05-04 09:37 | 35.38478 | -77.06314 | 36147 ft | 415 kts | 204° |
| 2026-05-04 09:38 | 35.32965 | -77.08467 | 36147 ft | 416 kts | 204° |
| 2026-05-04 09:38 | 35.27477 | -77.10608 | 36144 ft | 416 kts | 204° |
| 2026-05-04 09:39 | 35.21969 | -77.12753 | 36147 ft | 415 kts | 204° |
| 2026-05-04 09:39 | 35.16462 | -77.14895 | 36152 ft | 414 kts | 204° |
| 2026-05-04 09:40 | 35.10971 | -77.17028 | 36163 ft | 413 kts | 204° |
| 2026-05-04 09:40 | 35.05500 | -77.19150 | 36143 ft | 412 kts | 204° |
| 2026-05-04 09:42 | 34.83702 | -77.27577 | 36156 ft | 412 kts | 204° |
| 2026-05-04 09:43 | 34.78221 | -77.29689 | 36145 ft | 414 kts | 204° |
| 2026-05-04 09:43 | 34.72713 | -77.31808 | 36153 ft | 416 kts | 204° |
| 2026-05-04 09:44 | 34.67174 | -77.33936 | 36153 ft | 419 kts | 204° |
| 2026-05-04 09:46 | 34.44629 | -77.41978 | 36157 ft | 429 kts | 195° |
| 2026-05-04 09:46 | 34.38752 | -77.43063 | 36144 ft | 430 kts | 195° |
| 2026-05-04 09:47 | 34.32838 | -77.44154 | 36108 ft | 429 kts | 195° |
| 2026-05-04 09:49 | 34.10379 | -77.48511 | 36141 ft | 425 kts | 195° |
| 2026-05-04 09:51 | 33.90021 | -77.52462 | 36139 ft | 423 kts | 195° |
| 2026-05-04 09:51 | 33.84185 | -77.53591 | 36140 ft | 423 kts | 195° |
| 2026-05-04 09:52 | 33.78366 | -77.54715 | 36131 ft | 423 kts | 195° |
| 2026-05-04 09:52 | 33.72555 | -77.55835 | 36139 ft | 423 kts | 195° |
| 2026-05-04 09:53 | 33.66738 | -77.56956 | 36137 ft | 423 kts | 195° |
| 2026-05-04 09:53 | 33.60957 | -77.58069 | 36140 ft | 423 kts | 195° |
| 2026-05-04 09:54 | 33.55141 | -77.59220 | 36137 ft | 422 kts | 196° |
| 2026-05-04 09:54 | 33.49344 | -77.60490 | 36144 ft | 426 kts | 196° |
| 2026-05-04 09:55 | 33.43473 | -77.61795 | 36155 ft | 431 kts | 196° |
| 2026-05-04 09:55 | 33.37547 | -77.63096 | 36147 ft | 434 kts | 196° |
| 2026-05-04 09:56 | 33.31597 | -77.64391 | 36124 ft | 434 kts | 196° |
| 2026-05-04 09:56 | 33.25728 | -77.65657 | 36123 ft | 423 kts | 196° |
| 2026-05-04 09:57 | 33.19972 | -77.66903 | 36143 ft | 423 kts | 196° |
| 2026-05-04 09:57 | 33.14185 | -77.68158 | 36140 ft | 423 kts | 196° |
| 2026-05-04 09:58 | 33.08385 | -77.69414 | 36140 ft | 424 kts | 196° |
| 2026-05-04 09:58 | 33.02580 | -77.70667 | 36135 ft | 423 kts | 196° |
| 2026-05-04 10:00 | 32.79400 | -77.75653 | 36147 ft | 423 kts | 196° |
| 2026-05-04 10:04 | 32.38924 | -77.84296 | 36143 ft | 420 kts | 196° |
| 2026-05-04 10:04 | 32.33170 | -77.85517 | 36146 ft | 419 kts | 196° |
| 2026-05-04 10:05 | 32.27433 | -77.86722 | 36143 ft | 418 kts | 196° |
| 2026-05-04 10:05 | 32.21748 | -77.87931 | 36145 ft | 417 kts | 196° |
| 2026-05-04 10:06 | 32.16040 | -77.89147 | 36146 ft | 416 kts | 196° |
| 2026-05-04 10:06 | 32.10335 | -77.90355 | 36149 ft | 416 kts | 196° |
| 2026-05-04 10:08 | 31.90431 | -77.94549 | 36148 ft | 414 kts | 197° |
| 2026-05-04 10:08 | 31.84768 | -77.95739 | 36155 ft | 413 kts | 197° |
| 2026-05-04 10:09 | 31.79105 | -77.96929 | 36155 ft | 414 kts | 197° |
| 2026-05-04 10:09 | 31.73418 | -77.98122 | 36141 ft | 416 kts | 197° |
| 2026-05-04 10:10 | 31.67708 | -77.99318 | 36150 ft | 418 kts | 197° |
| 2026-05-04 10:10 | 31.61963 | -78.00520 | 36158 ft | 420 kts | 197° |
| 2026-05-04 10:11 | 31.56185 | -78.01721 | 36153 ft | 422 kts | 196° |
| 2026-05-04 10:11 | 31.50390 | -78.02929 | 36102 ft | 424 kts | 197° |
| 2026-05-04 10:12 | 31.44633 | -78.04132 | 36130 ft | 423 kts | 197° |
| 2026-05-04 10:12 | 31.38843 | -78.05326 | 36140 ft | 422 kts | 197° |
| 2026-05-04 10:13 | 31.33071 | -78.06527 | 36141 ft | 420 kts | 197° |
| 2026-05-04 10:13 | 31.27327 | -78.07724 | 36141 ft | 418 kts | 197° |
| 2026-05-04 10:14 | 31.21615 | -78.08910 | 36131 ft | 415 kts | 198° |
| 2026-05-04 10:16 | 30.99092 | -78.13560 | 36148 ft | 409 kts | 198° |
| 2026-05-04 10:16 | 30.93495 | -78.14720 | 36139 ft | 408 kts | 198° |
| 2026-05-04 10:17 | 30.87894 | -78.15874 | 36139 ft | 408 kts | 198° |
| 2026-05-04 10:19 | 30.65486 | -78.20472 | 36131 ft | 409 kts | 199° |
| 2026-05-04 10:19 | 30.59878 | -78.21619 | 36132 ft | 409 kts | 198° |
| 2026-05-04 10:20 | 30.54275 | -78.22764 | 36133 ft | 409 kts | 199° |
| 2026-05-04 10:20 | 30.48663 | -78.23910 | 36130 ft | 409 kts | 198° |
| 2026-05-04 10:21 | 30.43063 | -78.25051 | 36131 ft | 409 kts | 198° |
| 2026-05-04 10:21 | 30.37479 | -78.26187 | 36117 ft | 406 kts | 199° |
| 2026-05-04 10:22 | 30.29171 | -78.27875 | 36120 ft | 402 kts | 199° |
| 2026-05-04 10:23 | 30.23681 | -78.28989 | 36122 ft | 399 kts | 199° |
| 2026-05-04 10:25 | 30.03778 | -78.33023 | 36124 ft | 395 kts | 199° |
| 2026-05-04 10:25 | 30.03363 | -78.33107 | 36124 ft | 395 kts | 199° |
| 2026-05-04 10:26 | 29.98014 | -78.34188 | 36125 ft | 396 kts | 199° |
| 2026-05-04 10:26 | 29.92605 | -78.35281 | 36125 ft | 398 kts | 199° |
| 2026-05-04 10:27 | 29.87134 | -78.36384 | 36067 ft | 399 kts | 199° |
| 2026-05-04 10:27 | 29.81656 | -78.37486 | 36108 ft | 400 kts | 199° |
| 2026-05-04 10:28 | 29.76167 | -78.38590 | 36115 ft | 401 kts | 199° |
| 2026-05-04 10:28 | 29.70664 | -78.39695 | 36109 ft | 401 kts | 199° |
| 2026-05-04 10:29 | 29.65151 | -78.40801 | 36107 ft | 402 kts | 199° |
| 2026-05-04 10:29 | 29.59598 | -78.41792 | 36304 ft | 411 kts | 192° |
| 2026-05-04 10:29 | 29.56754 | -78.41618 | 36675 ft | 419 kts | 184° |
| 2026-05-04 10:30 | 29.53863 | -78.40989 | 36991 ft | 426 kts | 177° |
| 2026-05-04 10:30 | 29.51024 | -78.39827 | 37088 ft | 443 kts | 168° |
| 2026-05-04 10:30 | 29.48213 | -78.38305 | 37107 ft | 449 kts | 166° |
| 2026-05-04 10:31 | 29.42609 | -78.35079 | 37103 ft | 450 kts | 166° |
| 2026-05-04 10:32 | 29.23146 | -78.24091 | 37091 ft | 443 kts | 167° |
| 2026-05-04 10:33 | 29.17597 | -78.21010 | 37091 ft | 442 kts | 167° |
| 2026-05-04 10:33 | 29.12063 | -78.17939 | 37094 ft | 442 kts | 167° |
| 2026-05-04 10:34 | 29.06520 | -78.14865 | 37089 ft | 443 kts | 167° |
| 2026-05-04 10:34 | 29.01899 | -78.12305 | 37090 ft | 444 kts | 167° |
| 2026-05-04 10:35 | 28.95429 | -78.08722 | 37084 ft | 444 kts | 167° |
| 2026-05-04 10:35 | 28.90767 | -78.06136 | 37075 ft | 445 kts | 167° |
| 2026-05-04 10:36 | 28.85216 | -78.03072 | 37086 ft | 446 kts | 167° |
| 2026-05-04 10:36 | 28.79598 | -77.99979 | 37075 ft | 448 kts | 167° |
| 2026-05-04 10:37 | 28.73979 | -77.96876 | 37074 ft | 449 kts | 167° |
| 2026-05-04 10:37 | 28.68360 | -77.93773 | 37020 ft | 446 kts | 167° |
| 2026-05-04 10:39 | 28.48975 | -77.83153 | 37060 ft | 440 kts | 168° |
| 2026-05-04 10:40 | 28.43486 | -77.80147 | 37054 ft | 440 kts | 168° |
| 2026-05-04 10:40 | 28.37956 | -77.77123 | 37027 ft | 441 kts | 168° |
| 2026-05-04 10:41 | 28.32417 | -77.74098 | 37037 ft | 442 kts | 168° |
| 2026-05-04 10:41 | 28.26861 | -77.71067 | 37052 ft | 444 kts | 168° |
| 2026-05-04 10:42 | 28.21311 | -77.68041 | 37049 ft | 446 kts | 168° |
| 2026-05-04 10:42 | 28.15704 | -77.64989 | 37039 ft | 449 kts | 167° |
| 2026-05-04 10:42 | 28.12945 | -77.63204 | 37029 ft | 465 kts | 158° |
| 2026-05-04 10:43 | 28.10373 | -77.60885 | 37036 ft | 483 kts | 148° |
| 2026-05-04 10:45 | 27.91729 | -77.38673 | 37026 ft | 484 kts | 146° |
| 2026-05-04 10:45 | 27.87057 | -77.33189 | 37023 ft | 484 kts | 146° |
| 2026-05-04 10:46 | 27.82396 | -77.27717 | 37015 ft | 483 kts | 146° |
| 2026-05-04 10:46 | 27.77772 | -77.22294 | 36977 ft | 482 kts | 146° |
| 2026-05-04 10:47 | 27.73135 | -77.16860 | 37007 ft | 478 kts | 146° |
| 2026-05-04 10:47 | 27.68521 | -77.11465 | 37005 ft | 477 kts | 146° |
| 2026-05-04 10:49 | 27.50129 | -76.90031 | 37003 ft | 476 kts | 146° |
| 2026-05-04 10:50 | 27.45522 | -76.84678 | 36988 ft | 476 kts | 146° |
| 2026-05-04 10:52 | 27.27591 | -76.63907 | 37001 ft | 477 kts | 146° |
| 2026-05-04 10:52 | 27.22952 | -76.58549 | 37001 ft | 478 kts | 146° |
| 2026-05-04 10:54 | 27.04357 | -76.37196 | 36994 ft | 476 kts | 147° |
| 2026-05-04 10:56 | 26.84952 | -76.17215 | 36997 ft | 473 kts | 148° |
| 2026-05-04 10:57 | 26.80116 | -76.12209 | 36989 ft | 473 kts | 147° |
| 2026-05-04 10:57 | 26.75292 | -76.07216 | 36983 ft | 472 kts | 147° |
| 2026-05-04 10:58 | 26.70462 | -76.02229 | 36984 ft | 472 kts | 147° |
| 2026-05-04 10:58 | 26.65662 | -75.97281 | 36994 ft | 473 kts | 147° |
| 2026-05-04 10:59 | 26.60815 | -75.92291 | 36993 ft | 474 kts | 147° |
| 2026-05-04 10:59 | 26.55959 | -75.87298 | 36990 ft | 474 kts | 147° |
| 2026-05-04 11:00 | 26.51090 | -75.82295 | 36995 ft | 475 kts | 147° |
| 2026-05-04 11:02 | 26.31576 | -75.62307 | 37003 ft | 479 kts | 146° |